sensor_id;sensor_type;location;lat;lon;timestamp;temperature;humidity
1455;DHT22;721;48.168;12.818;2023-04-25T00:01:31;7.10;34.00
1455;DHT22;721;48.168;12.818;2023-04-25T00:03:59;7.10;34.60
1455;DHT22;721;48.168;12.818;2023-04-25T00:06:28;7.20;33.20
1455;DHT22;721;48.168;12.818;2023-04-25T00:08:55;7.30;33.70
1455;DHT22;721;48.168;12.818;2023-04-25T00:11:22;7.40;32.00
1455;DHT22;721;48.168;12.818;2023-04-25T00:13:49;7.30;34.10
1455;DHT22;721;48.168;12.818;2023-04-25T00:16:16;7.30;34.00
1455;DHT22;721;48.168;12.818;2023-04-25T00:18:43;7.30;34.10
1455;DHT22;721;48.168;12.818;2023-04-25T00:21:11;7.50;32.40
1455;DHT22;721;48.168;12.818;2023-04-25T00:23:39;7.30;32.10
1455;DHT22;721;48.168;12.818;2023-04-25T00:26:06;7.40;32.10
1455;DHT22;721;48.168;12.818;2023-04-25T00:28:33;7.40;31.70
1455;DHT22;721;48.168;12.818;2023-04-25T00:30:59;7.50;30.80
1455;DHT22;721;48.168;12.818;2023-04-25T00:33:26;7.60;29.50
1455;DHT22;721;48.168;12.818;2023-04-25T00:35:54;7.60;29.50
1455;DHT22;721;48.168;12.818;2023-04-25T00:38:20;7.70;28.80
1455;DHT22;721;48.168;12.818;2023-04-25T00:40:49;7.70;28.80
1455;DHT22;721;48.168;12.818;2023-04-25T00:43:15;7.70;29.00
1455;DHT22;721;48.168;12.818;2023-04-25T00:45:43;7.80;30.20
1455;DHT22;721;48.168;12.818;2023-04-25T00:48:10;7.70;28.70
1455;DHT22;721;48.168;12.818;2023-04-25T00:50:38;7.60;29.60
1455;DHT22;721;48.168;12.818;2023-04-25T00:53:05;7.60;29.90
1455;DHT22;721;48.168;12.818;2023-04-25T00:55:32;7.60;30.40
1455;DHT22;721;48.168;12.818;2023-04-25T00:58:01;7.70;29.70
1455;DHT22;721;48.168;12.818;2023-04-25T01:00:28;7.60;29.70
1455;DHT22;721;48.168;12.818;2023-04-25T01:02:56;7.50;30.70
1455;DHT22;721;48.168;12.818;2023-04-25T01:05:23;8.00;31.90
1455;DHT22;721;48.168;12.818;2023-04-25T01:07:50;7.50;31.40
1455;DHT22;721;48.168;12.818;2023-04-25T01:10:17;7.40;32.00
1455;DHT22;721;48.168;12.818;2023-04-25T01:12:44;7.40;33.20
1455;DHT22;721;48.168;12.818;2023-04-25T01:15:12;7.50;33.50
1455;DHT22;721;48.168;12.818;2023-04-25T01:17:40;7.50;34.40
1455;DHT22;721;48.168;12.818;2023-04-25T01:20:09;7.50;35.10
1455;DHT22;721;48.168;12.818;2023-04-25T01:22:37;7.60;33.40
1455;DHT22;721;48.168;12.818;2023-04-25T01:25:05;7.60;33.60
1455;DHT22;721;48.168;12.818;2023-04-25T01:27:33;7.60;32.60
1455;DHT22;721;48.168;12.818;2023-04-25T01:30:00;7.60;34.40
1455;DHT22;721;48.168;12.818;2023-04-25T01:32:27;7.70;32.70
1455;DHT22;721;48.168;12.818;2023-04-25T01:34:54;7.80;30.70
1455;DHT22;721;48.168;12.818;2023-04-25T01:37:20;7.80;31.30
1455;DHT22;721;48.168;12.818;2023-04-25T01:39:49;7.90;31.10
1455;DHT22;721;48.168;12.818;2023-04-25T01:42:15;7.60;32.10
1455;DHT22;721;48.168;12.818;2023-04-25T01:44:42;7.50;34.20
1455;DHT22;721;48.168;12.818;2023-04-25T01:47:09;7.50;34.30
1455;DHT22;721;48.168;12.818;2023-04-25T01:49:36;7.50;34.40
1455;DHT22;721;48.168;12.818;2023-04-25T01:52:03;8.50;32.80
1455;DHT22;721;48.168;12.818;2023-04-25T01:54:30;7.70;31.90
1455;DHT22;721;48.168;12.818;2023-04-25T01:56:58;8.10;31.90
1455;DHT22;721;48.168;12.818;2023-04-25T01:59:25;7.80;31.30
1455;DHT22;721;48.168;12.818;2023-04-25T02:01:52;9.40;32.30
1455;DHT22;721;48.168;12.818;2023-04-25T02:04:19;8.00;30.00
1455;DHT22;721;48.168;12.818;2023-04-25T02:06:46;8.00;29.90
1455;DHT22;721;48.168;12.818;2023-04-25T02:09:12;8.10;29.60
1455;DHT22;721;48.168;12.818;2023-04-25T02:11:39;8.10;29.20
1455;DHT22;721;48.168;12.818;2023-04-25T02:14:07;8.10;30.10
1455;DHT22;721;48.168;12.818;2023-04-25T02:16:34;9.00;31.10
1455;DHT22;721;48.168;12.818;2023-04-25T02:19:01;8.10;30.00
1455;DHT22;721;48.168;12.818;2023-04-25T02:21:28;8.10;30.10
1455;DHT22;721;48.168;12.818;2023-04-25T02:23:55;8.90;33.00
1455;DHT22;721;48.168;12.818;2023-04-25T02:26:23;8.00;30.20
1455;DHT22;721;48.168;12.818;2023-04-25T02:28:50;8.00;31.00
1455;DHT22;721;48.168;12.818;2023-04-25T02:31:18;8.00;29.90
1455;DHT22;721;48.168;12.818;2023-04-25T02:33:45;8.00;29.10
1455;DHT22;721;48.168;12.818;2023-04-25T02:36:12;8.00;29.90
1455;DHT22;721;48.168;12.818;2023-04-25T02:38:39;8.00;29.40
1455;DHT22;721;48.168;12.818;2023-04-25T02:41:05;7.80;30.60
1455;DHT22;721;48.168;12.818;2023-04-25T02:43:32;7.80;30.00
1455;DHT22;721;48.168;12.818;2023-04-25T02:46:00;7.70;29.80
1455;DHT22;721;48.168;12.818;2023-04-25T02:48:28;8.20;30.50
1455;DHT22;721;48.168;12.818;2023-04-25T02:50:55;7.70;29.00
1455;DHT22;721;48.168;12.818;2023-04-25T02:53:22;8.40;28.30
1455;DHT22;721;48.168;12.818;2023-04-25T02:55:49;7.80;27.90
1455;DHT22;721;48.168;12.818;2023-04-25T02:58:17;7.50;27.80
1455;DHT22;721;48.168;12.818;2023-04-25T03:00:45;7.80;27.60
1455;DHT22;721;48.168;12.818;2023-04-25T03:03:11;7.80;27.70
1455;DHT22;721;48.168;12.818;2023-04-25T03:05:39;7.60;27.00
1455;DHT22;721;48.168;12.818;2023-04-25T03:08:06;7.80;26.50
1455;DHT22;721;48.168;12.818;2023-04-25T03:10:33;7.20;25.60
1455;DHT22;721;48.168;12.818;2023-04-25T03:13:00;7.90;27.10
1455;DHT22;721;48.168;12.818;2023-04-25T03:15:26;7.80;27.00
1455;DHT22;721;48.168;12.818;2023-04-25T03:17:53;7.60;28.00
1455;DHT22;721;48.168;12.818;2023-04-25T03:20:20;7.60;27.50
1455;DHT22;721;48.168;12.818;2023-04-25T03:22:48;7.60;28.40
1455;DHT22;721;48.168;12.818;2023-04-25T03:25:15;7.50;28.20
1455;DHT22;721;48.168;12.818;2023-04-25T03:27:42;7.50;29.90
1455;DHT22;721;48.168;12.818;2023-04-25T03:30:09;7.40;28.10
1455;DHT22;721;48.168;12.818;2023-04-25T03:32:36;7.30;29.50
1455;DHT22;721;48.168;12.818;2023-04-25T03:35:03;7.30;29.10
1455;DHT22;721;48.168;12.818;2023-04-25T03:37:31;7.30;27.70
1455;DHT22;721;48.168;12.818;2023-04-25T03:39:59;7.30;26.80
1455;DHT22;721;48.168;12.818;2023-04-25T03:42:25;7.80;27.30
1455;DHT22;721;48.168;12.818;2023-04-25T03:44:52;7.30;27.30
1455;DHT22;721;48.168;12.818;2023-04-25T03:47:19;7.20;28.60
1455;DHT22;721;48.168;12.818;2023-04-25T03:49:46;7.00;29.20
1455;DHT22;721;48.168;12.818;2023-04-25T03:52:12;7.10;28.40
1455;DHT22;721;48.168;12.818;2023-04-25T03:54:39;7.10;28.10
1455;DHT22;721;48.168;12.818;2023-04-25T03:57:07;7.10;27.60
1455;DHT22;721;48.168;12.818;2023-04-25T03:59:34;6.90;29.00
1455;DHT22;721;48.168;12.818;2023-04-25T04:02:00;6.30;27.40
1455;DHT22;721;48.168;12.818;2023-04-25T04:04:27;7.90;28.10
1455;DHT22;721;48.168;12.818;2023-04-25T04:06:54;8.40;28.60
1455;DHT22;721;48.168;12.818;2023-04-25T04:09:21;7.00;27.00
1455;DHT22;721;48.168;12.818;2023-04-25T04:11:48;7.90;27.30
1455;DHT22;721;48.168;12.818;2023-04-25T04:14:16;6.50;26.50
1455;DHT22;721;48.168;12.818;2023-04-25T04:16:43;7.50;27.40
1455;DHT22;721;48.168;12.818;2023-04-25T04:19:10;7.00;27.20
1455;DHT22;721;48.168;12.818;2023-04-25T04:21:37;6.30;27.20
1455;DHT22;721;48.168;12.818;2023-04-25T04:24:04;6.80;31.50
1455;DHT22;721;48.168;12.818;2023-04-25T04:26:32;6.80;32.10
1455;DHT22;721;48.168;12.818;2023-04-25T04:28:59;6.90;31.70
1455;DHT22;721;48.168;12.818;2023-04-25T04:31:29;6.90;32.10
1455;DHT22;721;48.168;12.818;2023-04-25T04:33:56;6.90;30.60
1455;DHT22;721;48.168;12.818;2023-04-25T04:36:22;6.90;33.60
1455;DHT22;721;48.168;12.818;2023-04-25T04:38:49;6.90;36.00
1455;DHT22;721;48.168;12.818;2023-04-25T04:41:16;6.90;38.10
1455;DHT22;721;48.168;12.818;2023-04-25T04:43:45;7.00;40.70
1455;DHT22;721;48.168;12.818;2023-04-25T04:46:11;7.00;38.70
1455;DHT22;721;48.168;12.818;2023-04-25T04:48:39;7.10;39.70
1455;DHT22;721;48.168;12.818;2023-04-25T04:51:06;7.00;43.50
1455;DHT22;721;48.168;12.818;2023-04-25T04:53:33;7.00;43.80
1455;DHT22;721;48.168;12.818;2023-04-25T04:56:00;7.10;41.50
1455;DHT22;721;48.168;12.818;2023-04-25T04:58:26;7.20;42.00
1455;DHT22;721;48.168;12.818;2023-04-25T05:00:55;7.20;40.40
1455;DHT22;721;48.168;12.818;2023-04-25T05:03:22;7.30;39.70
1455;DHT22;721;48.168;12.818;2023-04-25T05:05:50;7.40;40.10
1455;DHT22;721;48.168;12.818;2023-04-25T05:08:17;7.40;40.10
1455;DHT22;721;48.168;12.818;2023-04-25T05:10:44;7.40;39.30
1455;DHT22;721;48.168;12.818;2023-04-25T05:13:10;7.50;39.20
1455;DHT22;721;48.168;12.818;2023-04-25T05:15:37;7.50;38.40
1455;DHT22;721;48.168;12.818;2023-04-25T05:18:04;7.50;37.60
1455;DHT22;721;48.168;12.818;2023-04-25T05:20:31;7.40;34.20
1455;DHT22;721;48.168;12.818;2023-04-25T05:22:59;7.40;35.80
1455;DHT22;721;48.168;12.818;2023-04-25T05:25:26;7.60;32.70
1455;DHT22;721;48.168;12.818;2023-04-25T05:27:53;6.90;33.30
1455;DHT22;721;48.168;12.818;2023-04-25T05:30:20;7.30;34.20
1455;DHT22;721;48.168;12.818;2023-04-25T05:32:47;7.30;33.90
1455;DHT22;721;48.168;12.818;2023-04-25T05:35:13;7.20;34.70
1455;DHT22;721;48.168;12.818;2023-04-25T05:37:40;7.30;33.50
1455;DHT22;721;48.168;12.818;2023-04-25T05:40:09;7.30;32.40
1455;DHT22;721;48.168;12.818;2023-04-25T05:42:36;7.40;33.30
1455;DHT22;721;48.168;12.818;2023-04-25T05:45:04;7.10;32.60
1455;DHT22;721;48.168;12.818;2023-04-25T05:47:31;7.60;32.50
1455;DHT22;721;48.168;12.818;2023-04-25T05:49:58;7.60;31.80
1455;DHT22;721;48.168;12.818;2023-04-25T05:52:25;7.70;30.40
1455;DHT22;721;48.168;12.818;2023-04-25T05:54:51;7.70;29.80
1455;DHT22;721;48.168;12.818;2023-04-25T05:57:22;7.80;29.80
1455;DHT22;721;48.168;12.818;2023-04-25T05:59:49;7.90;27.90
1455;DHT22;721;48.168;12.818;2023-04-25T06:02:15;8.00;26.10
1455;DHT22;721;48.168;12.818;2023-04-25T06:04:42;8.10;23.70
1455;DHT22;721;48.168;12.818;2023-04-25T06:07:09;7.80;23.00
1455;DHT22;721;48.168;12.818;2023-04-25T06:09:36;8.30;22.50
1455;DHT22;721;48.168;12.818;2023-04-25T06:12:04;8.40;21.60
1455;DHT22;721;48.168;12.818;2023-04-25T06:14:33;8.50;20.90
1455;DHT22;721;48.168;12.818;2023-04-25T06:17:00;8.60;18.60
1455;DHT22;721;48.168;12.818;2023-04-25T06:19:31;8.60;18.50
1455;DHT22;721;48.168;12.818;2023-04-25T06:21:58;8.60;20.40
1455;DHT22;721;48.168;12.818;2023-04-25T06:24:25;8.90;17.80
1455;DHT22;721;48.168;12.818;2023-04-25T06:26:52;9.70;18.40
1455;DHT22;721;48.168;12.818;2023-04-25T06:29:19;10.00;17.00
1455;DHT22;721;48.168;12.818;2023-04-25T06:31:47;9.40;17.90
1455;DHT22;721;48.168;12.818;2023-04-25T06:34:14;9.60;14.80
1455;DHT22;721;48.168;12.818;2023-04-25T06:36:40;9.70;14.80
1455;DHT22;721;48.168;12.818;2023-04-25T06:39:07;9.70;14.90
1455;DHT22;721;48.168;12.818;2023-04-25T06:41:34;9.70;13.70
1455;DHT22;721;48.168;12.818;2023-04-25T06:44:01;9.80;14.40
1455;DHT22;721;48.168;12.818;2023-04-25T06:46:28;10.00;13.60
1455;DHT22;721;48.168;12.818;2023-04-25T06:48:56;10.00;12.70
1455;DHT22;721;48.168;12.818;2023-04-25T06:51:23;10.10;12.50
1455;DHT22;721;48.168;12.818;2023-04-25T06:53:50;10.10;12.20
1455;DHT22;721;48.168;12.818;2023-04-25T06:56:17;10.10;13.00
1455;DHT22;721;48.168;12.818;2023-04-25T06:58:43;9.90;11.70
1455;DHT22;721;48.168;12.818;2023-04-25T07:01:10;10.10;10.70
1455;DHT22;721;48.168;12.818;2023-04-25T07:03:37;10.00;11.80
1455;DHT22;721;48.168;12.818;2023-04-25T07:06:05;10.10;13.90
1455;DHT22;721;48.168;12.818;2023-04-25T07:08:32;10.10;11.30
1455;DHT22;721;48.168;12.818;2023-04-25T07:10:59;10.10;13.50
1455;DHT22;721;48.168;12.818;2023-04-25T07:13:26;10.10;13.00
1455;DHT22;721;48.168;12.818;2023-04-25T07:15:53;10.20;12.30
1455;DHT22;721;48.168;12.818;2023-04-25T07:18:20;10.40;12.40
1455;DHT22;721;48.168;12.818;2023-04-25T07:20:47;10.30;11.20
1455;DHT22;721;48.168;12.818;2023-04-25T07:23:15;10.20;11.70
1455;DHT22;721;48.168;12.818;2023-04-25T07:25:42;11.10;11.40
1455;DHT22;721;48.168;12.818;2023-04-25T07:28:09;10.60;11.60
1455;DHT22;721;48.168;12.818;2023-04-25T07:30:36;10.00;10.70
1455;DHT22;721;48.168;12.818;2023-04-25T07:33:03;9.80;14.00
1455;DHT22;721;48.168;12.818;2023-04-25T07:35:30;10.00;10.70
1455;DHT22;721;48.168;12.818;2023-04-25T07:37:56;10.20;10.70
1455;DHT22;721;48.168;12.818;2023-04-25T07:40:26;9.70;13.20
1455;DHT22;721;48.168;12.818;2023-04-25T07:42:52;9.70;16.60
1455;DHT22;721;48.168;12.818;2023-04-25T07:45:19;10.30;13.40
1455;DHT22;721;48.168;12.818;2023-04-25T07:47:46;9.80;13.40
1455;DHT22;721;48.168;12.818;2023-04-25T07:50:13;10.40;11.70
1455;DHT22;721;48.168;12.818;2023-04-25T07:52:40;9.70;15.40
1455;DHT22;721;48.168;12.818;2023-04-25T07:55:07;9.70;14.00
1455;DHT22;721;48.168;12.818;2023-04-25T07:57:36;9.80;15.40
1455;DHT22;721;48.168;12.818;2023-04-25T08:00:04;9.70;13.40
1455;DHT22;721;48.168;12.818;2023-04-25T08:02:34;9.80;13.10
1455;DHT22;721;48.168;12.818;2023-04-25T08:05:01;9.70;16.30
1455;DHT22;721;48.168;12.818;2023-04-25T08:07:28;9.70;19.30
1455;DHT22;721;48.168;12.818;2023-04-25T08:09:55;9.50;12.70
1455;DHT22;721;48.168;12.818;2023-04-25T08:12:22;9.30;15.20
1455;DHT22;721;48.168;12.818;2023-04-25T08:14:50;9.40;16.00
1455;DHT22;721;48.168;12.818;2023-04-25T08:17:17;9.40;16.30
1455;DHT22;721;48.168;12.818;2023-04-25T08:19:44;9.40;17.30
1455;DHT22;721;48.168;12.818;2023-04-25T08:22:10;9.50;17.60
1455;DHT22;721;48.168;12.818;2023-04-25T08:24:38;9.60;14.10
1455;DHT22;721;48.168;12.818;2023-04-25T08:27:05;9.70;13.70
1455;DHT22;721;48.168;12.818;2023-04-25T08:29:33;9.90;13.80
1455;DHT22;721;48.168;12.818;2023-04-25T08:32:01;10.10;13.30
1455;DHT22;721;48.168;12.818;2023-04-25T08:34:28;10.20;14.40
1455;DHT22;721;48.168;12.818;2023-04-25T08:36:55;9.70;18.40
1455;DHT22;721;48.168;12.818;2023-04-25T08:39:22;9.00;21.60
1455;DHT22;721;48.168;12.818;2023-04-25T08:41:48;8.70;24.00
1455;DHT22;721;48.168;12.818;2023-04-25T08:44:16;8.20;28.20
1455;DHT22;721;48.168;12.818;2023-04-25T08:46:45;8.20;27.40
1455;DHT22;721;48.168;12.818;2023-04-25T08:49:17;7.90;31.00
1455;DHT22;721;48.168;12.818;2023-04-25T08:51:45;7.90;38.60
1455;DHT22;721;48.168;12.818;2023-04-25T08:54:14;7.80;38.20
1455;DHT22;721;48.168;12.818;2023-04-25T08:56:44;7.90;41.00
1455;DHT22;721;48.168;12.818;2023-04-25T08:59:11;8.00;43.50
1455;DHT22;721;48.168;12.818;2023-04-25T09:01:38;8.10;43.10
1455;DHT22;721;48.168;12.818;2023-04-25T09:04:05;8.30;37.40
1455;DHT22;721;48.168;12.818;2023-04-25T09:06:33;8.50;45.50
1455;DHT22;721;48.168;12.818;2023-04-25T09:09:02;8.60;41.20
1455;DHT22;721;48.168;12.818;2023-04-25T09:11:30;8.80;40.30
1455;DHT22;721;48.168;12.818;2023-04-25T09:14:11;8.90;29.10
1455;DHT22;721;48.168;12.818;2023-04-25T09:16:58;9.00;29.40
1455;DHT22;721;48.168;12.818;2023-04-25T09:19:27;9.10;28.00
1455;DHT22;721;48.168;12.818;2023-04-25T09:21:56;9.10;25.90
1455;DHT22;721;48.168;12.818;2023-04-25T09:24:37;9.30;32.00
1455;DHT22;721;48.168;12.818;2023-04-25T09:27:04;9.50;26.30
1455;DHT22;721;48.168;12.818;2023-04-25T09:29:32;9.70;17.30
1455;DHT22;721;48.168;12.818;2023-04-25T09:32:17;9.70;22.90
1455;DHT22;721;48.168;12.818;2023-04-25T09:34:46;9.90;21.80
1455;DHT22;721;48.168;12.818;2023-04-25T09:37:19;10.00;16.90
1455;DHT22;721;48.168;12.818;2023-04-25T09:39:47;10.10;18.80
1455;DHT22;721;48.168;12.818;2023-04-25T09:42:14;10.10;16.00
1455;DHT22;721;48.168;12.818;2023-04-25T09:44:42;10.20;19.40
1455;DHT22;721;48.168;12.818;2023-04-25T09:47:10;10.20;14.50
1455;DHT22;721;48.168;12.818;2023-04-25T09:49:39;10.30;14.40
1455;DHT22;721;48.168;12.818;2023-04-25T09:52:07;10.40;14.50
1455;DHT22;721;48.168;12.818;2023-04-25T09:54:35;10.60;16.50
1455;DHT22;721;48.168;12.818;2023-04-25T09:57:09;10.70;12.00
1455;DHT22;721;48.168;12.818;2023-04-25T09:59:38;10.80;13.10
1455;DHT22;721;48.168;12.818;2023-04-25T10:02:07;10.80;10.00
1455;DHT22;721;48.168;12.818;2023-04-25T10:04:35;10.80;9.70
1455;DHT22;721;48.168;12.818;2023-04-25T10:07:03;10.90;9.90
1455;DHT22;721;48.168;12.818;2023-04-25T10:09:32;11.10;9.80
1455;DHT22;721;48.168;12.818;2023-04-25T10:12:01;11.20;4.80
1455;DHT22;721;48.168;12.818;2023-04-25T10:14:30;11.40;7.40
1455;DHT22;721;48.168;12.818;2023-04-25T10:16:58;11.70;5.50
1455;DHT22;721;48.168;12.818;2023-04-25T10:19:25;11.60;1.00
1455;DHT22;721;48.168;12.818;2023-04-25T10:21:54;11.70;1.00
1455;DHT22;721;48.168;12.818;2023-04-25T10:24:22;11.90;3.00
1455;DHT22;721;48.168;12.818;2023-04-25T10:26:50;11.70;1.00
1455;DHT22;721;48.168;12.818;2023-04-25T10:29:23;11.70;1.00
1455;DHT22;721;48.168;12.818;2023-04-25T10:31:51;11.70;1.00
1455;DHT22;721;48.168;12.818;2023-04-25T10:34:17;11.80;1.00
1455;DHT22;721;48.168;12.818;2023-04-25T10:36:49;11.90;1.00
1455;DHT22;721;48.168;12.818;2023-04-25T10:39:22;12.10;1.00
1455;DHT22;721;48.168;12.818;2023-04-25T10:41:53;12.30;1.00
1455;DHT22;721;48.168;12.818;2023-04-25T10:44:23;12.30;1.00
1455;DHT22;721;48.168;12.818;2023-04-25T10:46:54;12.40;1.00
1455;DHT22;721;48.168;12.818;2023-04-25T10:49:31;12.40;1.00
1455;DHT22;721;48.168;12.818;2023-04-25T10:52:18;12.30;1.00
1455;DHT22;721;48.168;12.818;2023-04-25T10:54:52;12.60;1.00
1455;DHT22;721;48.168;12.818;2023-04-25T10:57:30;12.90;1.00
1455;DHT22;721;48.168;12.818;2023-04-25T11:00:19;12.80;1.00
1455;DHT22;721;48.168;12.818;2023-04-25T11:02:48;12.80;1.00
1455;DHT22;721;48.168;12.818;2023-04-25T11:05:29;12.90;1.00
1455;DHT22;721;48.168;12.818;2023-04-25T11:07:58;12.80;1.00
1455;DHT22;721;48.168;12.818;2023-04-25T11:10:26;12.10;1.00
1455;DHT22;721;48.168;12.818;2023-04-25T11:12:53;10.90;1.00
1455;DHT22;721;48.168;12.818;2023-04-25T11:15:21;10.00;1.00
1455;DHT22;721;48.168;12.818;2023-04-25T11:17:50;9.50;5.90
1455;DHT22;721;48.168;12.818;2023-04-25T11:20:17;9.20;10.50
1455;DHT22;721;48.168;12.818;2023-04-25T11:22:45;9.20;10.80
1455;DHT22;721;48.168;12.818;2023-04-25T11:25:14;9.00;10.70
1455;DHT22;721;48.168;12.818;2023-04-25T11:27:50;8.90;14.70
1455;DHT22;721;48.168;12.818;2023-04-25T11:30:17;8.80;14.80
1455;DHT22;721;48.168;12.818;2023-04-25T11:32:46;8.80;17.30
1455;DHT22;721;48.168;12.818;2023-04-25T11:35:13;8.90;21.70
1455;DHT22;721;48.168;12.818;2023-04-25T11:37:41;8.90;22.00
1455;DHT22;721;48.168;12.818;2023-04-25T11:40:08;9.10;18.10
1455;DHT22;721;48.168;12.818;2023-04-25T11:42:37;9.60;16.60
1455;DHT22;721;48.168;12.818;2023-04-25T11:45:06;10.00;21.50
1455;DHT22;721;48.168;12.818;2023-04-25T11:47:35;10.50;8.20
1455;DHT22;721;48.168;12.818;2023-04-25T11:50:04;10.90;11.20
1455;DHT22;721;48.168;12.818;2023-04-25T11:52:39;11.30;7.50
1455;DHT22;721;48.168;12.818;2023-04-25T11:55:07;11.90;5.70
1455;DHT22;721;48.168;12.818;2023-04-25T11:57:35;12.20;1.00
1455;DHT22;721;48.168;12.818;2023-04-25T12:00:10;12.40;1.00
1455;DHT22;721;48.168;12.818;2023-04-25T12:02:40;12.50;1.00
1455;DHT22;721;48.168;12.818;2023-04-25T12:05:08;12.70;1.00
1455;DHT22;721;48.168;12.818;2023-04-25T12:07:36;12.80;1.00
1455;DHT22;721;48.168;12.818;2023-04-25T12:10:08;12.40;1.00
1455;DHT22;721;48.168;12.818;2023-04-25T12:12:36;12.50;1.00
1455;DHT22;721;48.168;12.818;2023-04-25T12:15:14;12.30;1.00
1455;DHT22;721;48.168;12.818;2023-04-25T12:17:44;12.10;1.00
1455;DHT22;721;48.168;12.818;2023-04-25T12:20:14;11.80;1.00
1455;DHT22;721;48.168;12.818;2023-04-25T12:22:42;11.50;1.00
1455;DHT22;721;48.168;12.818;2023-04-25T12:25:13;12.10;1.00
1455;DHT22;721;48.168;12.818;2023-04-25T12:28:09;11.20;1.00
1455;DHT22;721;48.168;12.818;2023-04-25T12:30:52;11.00;1.00
1455;DHT22;721;48.168;12.818;2023-04-25T12:33:19;10.70;2.80
1455;DHT22;721;48.168;12.818;2023-04-25T12:35:47;10.30;7.60
1455;DHT22;721;48.168;12.818;2023-04-25T12:38:21;9.80;15.60
1455;DHT22;721;48.168;12.818;2023-04-25T12:40:48;9.40;19.10
1455;DHT22;721;48.168;12.818;2023-04-25T12:43:14;9.20;21.60
1455;DHT22;721;48.168;12.818;2023-04-25T12:45:41;9.20;25.30
1455;DHT22;721;48.168;12.818;2023-04-25T12:48:08;9.20;24.30
1455;DHT22;721;48.168;12.818;2023-04-25T12:50:35;9.20;25.50
1455;DHT22;721;48.168;12.818;2023-04-25T12:53:03;9.20;24.40
1455;DHT22;721;48.168;12.818;2023-04-25T12:55:30;9.70;24.50
1455;DHT22;721;48.168;12.818;2023-04-25T12:57:57;9.00;25.90
1455;DHT22;721;48.168;12.818;2023-04-25T13:00:24;9.00;30.80
1455;DHT22;721;48.168;12.818;2023-04-25T13:02:52;8.90;30.10
1455;DHT22;721;48.168;12.818;2023-04-25T13:05:18;8.60;29.70
1455;DHT22;721;48.168;12.818;2023-04-25T13:07:45;8.40;35.80
1455;DHT22;721;48.168;12.818;2023-04-25T13:10:13;8.20;42.70
1455;DHT22;721;48.168;12.818;2023-04-25T13:12:41;8.10;43.10
1455;DHT22;721;48.168;12.818;2023-04-25T13:15:09;8.00;46.20
1455;DHT22;721;48.168;12.818;2023-04-25T13:17:36;8.00;45.40
1455;DHT22;721;48.168;12.818;2023-04-25T13:20:04;7.90;44.30
1455;DHT22;721;48.168;12.818;2023-04-25T13:22:34;7.90;47.10
1455;DHT22;721;48.168;12.818;2023-04-25T13:25:02;7.90;48.80
1455;DHT22;721;48.168;12.818;2023-04-25T13:27:30;7.80;47.90
1455;DHT22;721;48.168;12.818;2023-04-25T13:29:58;7.90;51.20
1455;DHT22;721;48.168;12.818;2023-04-25T13:32:25;7.90;44.30
1455;DHT22;721;48.168;12.818;2023-04-25T13:34:52;7.80;44.20
1455;DHT22;721;48.168;12.818;2023-04-25T13:37:19;7.70;45.40
1455;DHT22;721;48.168;12.818;2023-04-25T13:39:49;7.70;42.50
1455;DHT22;721;48.168;12.818;2023-04-25T13:42:16;7.70;48.50
1455;DHT22;721;48.168;12.818;2023-04-25T13:44:44;7.70;51.70
1455;DHT22;721;48.168;12.818;2023-04-25T13:47:11;7.80;52.50
1455;DHT22;721;48.168;12.818;2023-04-25T13:49:38;7.30;49.40
1455;DHT22;721;48.168;12.818;2023-04-25T13:52:05;7.90;53.70
1455;DHT22;721;48.168;12.818;2023-04-25T13:54:32;8.00;52.50
1455;DHT22;721;48.168;12.818;2023-04-25T13:56:58;8.10;50.30
1455;DHT22;721;48.168;12.818;2023-04-25T13:59:25;8.20;52.60
1455;DHT22;721;48.168;12.818;2023-04-25T14:01:54;8.20;44.50
1455;DHT22;721;48.168;12.818;2023-04-25T14:04:20;8.20;42.70
1455;DHT22;721;48.168;12.818;2023-04-25T14:06:47;8.20;47.60
1455;DHT22;721;48.168;12.818;2023-04-25T14:09:14;8.20;45.40
1455;DHT22;721;48.168;12.818;2023-04-25T14:11:41;8.10;39.70
1455;DHT22;721;48.168;12.818;2023-04-25T14:14:08;8.00;42.30
1455;DHT22;721;48.168;12.818;2023-04-25T14:16:35;8.10;46.10
1455;DHT22;721;48.168;12.818;2023-04-25T14:19:03;8.10;44.20
1455;DHT22;721;48.168;12.818;2023-04-25T14:21:30;8.20;44.60
1455;DHT22;721;48.168;12.818;2023-04-25T14:23:58;8.10;47.50
1455;DHT22;721;48.168;12.818;2023-04-25T14:26:25;8.10;46.10
1455;DHT22;721;48.168;12.818;2023-04-25T14:28:52;8.40;51.40
1455;DHT22;721;48.168;12.818;2023-04-25T14:31:18;8.40;48.90
1455;DHT22;721;48.168;12.818;2023-04-25T14:33:46;8.60;55.20
1455;DHT22;721;48.168;12.818;2023-04-25T14:36:14;8.90;53.60
1455;DHT22;721;48.168;12.818;2023-04-25T14:38:41;9.20;54.40
1455;DHT22;721;48.168;12.818;2023-04-25T14:41:08;9.60;58.60
1455;DHT22;721;48.168;12.818;2023-04-25T14:43:36;9.70;47.20
1455;DHT22;721;48.168;12.818;2023-04-25T14:46:03;10.00;33.10
1455;DHT22;721;48.168;12.818;2023-04-25T14:48:29;10.20;26.10
1455;DHT22;721;48.168;12.818;2023-04-25T14:50:56;10.30;29.70
1455;DHT22;721;48.168;12.818;2023-04-25T14:53:24;10.20;21.30
1455;DHT22;721;48.168;12.818;2023-04-25T14:55:52;10.10;18.80
1455;DHT22;721;48.168;12.818;2023-04-25T14:58:19;9.90;20.90
1455;DHT22;721;48.168;12.818;2023-04-25T15:00:47;9.80;21.60
1455;DHT22;721;48.168;12.818;2023-04-25T15:03:14;9.70;24.30
1455;DHT22;721;48.168;12.818;2023-04-25T15:05:42;9.60;22.90
1455;DHT22;721;48.168;12.818;2023-04-25T15:08:09;9.50;24.70
1455;DHT22;721;48.168;12.818;2023-04-25T15:10:38;9.50;22.40
1455;DHT22;721;48.168;12.818;2023-04-25T15:13:04;9.50;23.90
1455;DHT22;721;48.168;12.818;2023-04-25T15:15:31;9.40;22.90
1455;DHT22;721;48.168;12.818;2023-04-25T15:17:58;9.40;25.00
1455;DHT22;721;48.168;12.818;2023-04-25T15:20:25;9.50;23.90
1455;DHT22;721;48.168;12.818;2023-04-25T15:22:53;9.40;26.00
1455;DHT22;721;48.168;12.818;2023-04-25T15:25:20;9.40;24.50
1455;DHT22;721;48.168;12.818;2023-04-25T15:27:48;9.50;26.80
1455;DHT22;721;48.168;12.818;2023-04-25T15:30:17;9.40;27.00
1455;DHT22;721;48.168;12.818;2023-04-25T15:32:45;9.40;27.10
1455;DHT22;721;48.168;12.818;2023-04-25T15:35:13;9.30;29.50
1455;DHT22;721;48.168;12.818;2023-04-25T15:37:40;9.30;32.30
1455;DHT22;721;48.168;12.818;2023-04-25T15:40:09;9.20;32.80
1455;DHT22;721;48.168;12.818;2023-04-25T15:42:36;9.20;33.80
1455;DHT22;721;48.168;12.818;2023-04-25T15:45:06;9.10;36.00
1455;DHT22;721;48.168;12.818;2023-04-25T15:47:34;8.90;35.50
1455;DHT22;721;48.168;12.818;2023-04-25T15:50:03;8.60;37.70
1455;DHT22;721;48.168;12.818;2023-04-25T15:52:31;8.50;37.60
1455;DHT22;721;48.168;12.818;2023-04-25T15:54:57;8.20;39.30
1455;DHT22;721;48.168;12.818;2023-04-25T15:57:24;8.10;43.50
1455;DHT22;721;48.168;12.818;2023-04-25T15:59:51;8.10;46.90
1455;DHT22;721;48.168;12.818;2023-04-25T16:02:19;8.10;44.90
1455;DHT22;721;48.168;12.818;2023-04-25T16:04:46;8.30;45.90
1455;DHT22;721;48.168;12.818;2023-04-25T16:07:13;8.80;49.90
1455;DHT22;721;48.168;12.818;2023-04-25T16:09:40;8.20;50.90
1455;DHT22;721;48.168;12.818;2023-04-25T16:12:08;8.40;51.80
1455;DHT22;721;48.168;12.818;2023-04-25T16:14:35;8.40;52.20
1455;DHT22;721;48.168;12.818;2023-04-25T16:17:02;8.50;50.50
1455;DHT22;721;48.168;12.818;2023-04-25T16:19:30;8.50;50.30
1455;DHT22;721;48.168;12.818;2023-04-25T16:21:57;8.40;49.50